Time;durP1;ratioP1;P1;durP2;ratioP2;P2;SDS_P1;SDS_P2;PMS_P1;PMS_P2;Temp;Humidity;BMP_temperature;BMP_pressure;BME280_temperature;BME280_humidity;BME280_pressure;Samples;Min_cycle;Max_cycle;Signal;HPM_P1;HPM_P2
2022/08/08 00:02:07;;;;;;;18.17;11.50;;;;;;;17.97;100.00;100487.22;1669399;85;21317;-67
2022/08/08 00:04:56;;;;;;;12.63;10.65;;;;;;;17.97;100.00;100492.55;1680745;84;21048;-68
2022/08/08 00:07:40;;;;;;;17.10;12.45;;;;;;;17.94;100.00;100495.39;1695844;84;21041;-67
2022/08/08 00:10:32;;;;;;;14.63;12.07;;;;;;;17.92;100.00;100495.95;1704369;84;21548;-67
2022/08/08 00:13:10;;;;;;;16.70;11.35;;;;;;;17.87;100.00;100504.71;1698507;84;21620;-67
2022/08/08 00:15:47;;;;;;;16.07;11.33;;;;;;;17.84;100.00;100502.25;1698698;84;21116;-68
2022/08/08 00:18:25;;;;;;;15.53;11.50;;;;;;;17.82;100.00;100507.66;1698526;84;21013;-67
2022/08/08 00:20:55;;;;;;;18.30;12.25;;;;;;;17.81;100.00;100504.14;1698908;84;21072;-67
2022/08/08 00:23:37;;;;;;;17.12;11.28;;;;;;;17.84;100.00;100504.91;1698938;84;21057;-69
2022/08/08 00:26:05;;;;;;;14.03;11.43;;;;;;;17.89;100.00;100498.34;1698794;84;21056;-67
2022/08/08 00:28:40;;;;;;;16.97;11.55;;;;;;;17.90;100.00;100501.84;1698809;84;21242;-67
2022/08/08 00:31:14;;;;;;;15.95;10.72;;;;;;;17.84;100.00;100507.58;1698997;84;21069;-66
2022/08/08 00:33:47;;;;;;;16.82;11.78;;;;;;;17.81;100.00;100498.81;1698763;84;21044;-66
2022/08/08 00:36:23;;;;;;;14.68;11.10;;;;;;;17.85;100.00;100499.47;1699098;84;21032;-67
2022/08/08 00:39:04;;;;;;;17.77;11.30;;;;;;;17.84;100.00;100507.09;1680938;84;21052;-68
2022/08/08 00:42:05;;;;;;;16.00;12.20;;;;;;;17.82;100.00;100505.00;1696213;84;21093;-67
2022/08/08 00:44:55;;;;;;;;;;;;;;;17.84;100.00;100506.25;1700240;84;21044;-68
2022/08/08 00:47:36;;;;;;;18.45;10.88;;;;;;;17.80;100.00;100513.04;1699142;84;20528;-67
2022/08/08 00:50:36;;;;;;;15.68;12.05;;;;;;;17.77;100.00;100505.25;1698654;84;21084;-68
2022/08/08 00:53:23;;;;;;;17.75;10.70;;;;;;;17.77;100.00;100509.23;1692282;84;21040;-68
2022/08/08 00:56:20;;;;;;;12.23;8.70;;;;;;;17.78;100.00;100504.31;1680168;84;21488;-67
2022/08/08 00:59:15;;;;;;;20.72;11.78;;;;;;;17.80;100.00;100504.20;1680079;84;22163;-67
2022/08/08 01:02:20;;;;;;;20.05;11.55;;;;;;;17.79;100.00;100505.16;1661742;84;21028;-67
2022/08/08 01:05:23;;;;;;;14.55;10.43;;;;;;;17.77;100.00;100499.91;1698682;84;21020;-67
2022/08/08 01:08:23;;;;;;;15.28;11.05;;;;;;;17.77;100.00;100502.58;1697924;84;21108;-67
2022/08/08 01:11:16;;;;;;;16.32;11.28;;;;;;;17.78;100.00;100501.65;1698899;84;21192;-67
2022/08/08 01:14:14;;;;;;;17.07;11.97;;;;;;;17.78;100.00;100504.77;1697697;84;21544;-67
2022/08/08 01:17:11;;;;;;;17.02;11.70;;;;;;;17.78;100.00;100497.66;1698276;84;21632;-67
2022/08/08 01:20:17;;;;;;;18.15;12.88;;;;;;;17.78;100.00;100498.98;1697165;84;21040;-68
2022/08/08 01:23:17;;;;;;;19.57;12.40;;;;;;;17.76;100.00;100487.56;1698694;84;21092;-68
2022/08/08 01:26:24;;;;;;;16.77;11.08;;;;;;;17.73;100.00;100488.21;1698862;84;21192;-68
2022/08/08 01:29:08;;;;;;;20.50;11.80;;;;;;;17.73;100.00;100482.41;1698593;84;21025;-66
2022/08/08 01:32:01;;;;;;;14.58;11.00;;;;;;;17.74;100.00;100488.13;1698624;84;21100;-66
2022/08/08 01:35:08;;;;;;;16.15;11.40;;;;;;;17.74;100.00;100490.80;1698950;84;21081;-68
2022/08/08 01:38:18;;;;;;;19.87;10.75;;;;;;;17.75;100.00;100500.97;1698914;84;21025;-67
2022/08/08 01:41:10;;;;;;;17.60;12.00;;;;;;;17.75;100.00;100501.81;1698333;84;21135;-68
2022/08/08 01:43:52;;;;;;;;;;;;;;;17.75;100.00;100509.80;1700953;84;21549;-67
2022/08/08 01:46:51;;;;;;;16.00;10.82;;;;;;;17.74;100.00;100502.78;1698660;84;20833;-66
2022/08/08 01:49:53;;;;;;;17.32;11.03;;;;;;;17.73;100.00;100506.38;1698603;84;21071;-66
2022/08/08 01:52:41;;;;;;;19.65;12.58;;;;;;;17.73;100.00;100507.70;1693261;84;21040;-67
2022/08/08 01:55:33;;;;;;;18.80;11.57;;;;;;;17.68;100.00;100499.62;1680772;84;21551;-67
2022/08/08 01:58:19;;;;;;;15.43;11.35;;;;;;;17.67;100.00;100505.44;1677414;84;21103;-66
2022/08/08 02:01:00;;;;;;;15.78;11.28;;;;;;;17.66;100.00;100507.70;1686331;84;21548;-67
2022/08/08 02:03:49;;;;;;;14.93;9.70;;;;;;;17.67;100.00;100506.77;1698558;84;21521;-66
2022/08/08 02:06:50;;;;;;;16.25;10.45;;;;;;;17.68;100.00;100511.13;1698911;84;21092;-67
2022/08/08 02:10:05;;;;;;;21.33;10.58;;;;;;;17.65;100.00;100513.98;1698847;84;21544;-67
2022/08/08 02:13:11;;;;;;;20.20;12.28;;;;;;;17.63;100.00;100514.55;1698711;84;21127;-67
2022/08/08 02:15:42;;;;;;;15.32;11.10;;;;;;;17.60;100.00;100508.09;1699295;84;21081;-67
2022/08/08 02:18:20;;;;;;;13.45;10.72;;;;;;;17.63;100.00;100514.55;1698527;84;21029;-66
2022/08/08 02:24:15;;;;;;;17.07;10.70;;;;;;;17.58;100.00;100505.52;1698883;84;21152;-67
2022/08/08 02:27:06;;;;;;;12.18;9.10;;;;;;;17.56;100.00;100503.89;1698947;84;21070;-67
2022/08/08 02:30:03;;;;;;;14.87;10.30;;;;;;;17.56;100.00;100511.41;1698871;84;21057;-67
2022/08/08 02:33:06;;;;;;;17.80;11.38;;;;;;;17.55;100.00;100507.48;1698928;84;21498;-67
2022/08/08 02:36:27;;;;;;;15.45;10.38;;;;;;;17.56;100.00;100514.06;1699142;84;21084;-67
2022/08/08 02:39:32;;;;;;;16.25;10.55;;;;;;;17.58;100.00;100516.64;1699047;84;21146;-67
2022/08/08 02:42:17;;;;;;;16.40;11.30;;;;;;;17.57;100.00;100520.23;1698756;84;21044;-66
2022/08/08 02:45:28;;;;;;;15.60;10.78;;;;;;;17.54;100.00;100520.43;1698762;84;21052;-66
2022/08/08 02:48:27;;;;;;;13.50;10.30;;;;;;;17.51;100.00;100525.95;1698389;84;21571;-68
2022/08/08 02:51:18;;;;;;;17.98;10.58;;;;;;;17.52;100.00;100521.84;1697983;84;21027;-67
2022/08/08 02:53:53;;;;;;;16.40;11.08;;;;;;;17.53;100.00;100519.58;1686813;84;21075;-66
2022/08/08 02:56:44;;;;;;;13.22;9.98;;;;;;;17.54;100.00;100517.77;1680411;84;21048;-67
2022/08/08 02:59:41;;;;;;;12.07;9.60;;;;;;;17.53;100.00;100520.03;1679581;84;21064;-67
2022/08/08 03:02:30;;;;;;;13.15;10.00;;;;;;;17.49;100.00;100515.38;1695629;84;21520;-68
2022/08/08 03:05:29;;;;;;;15.95;10.28;;;;;;;17.49;100.00;100515.86;1698679;84;21049;-67
2022/08/08 03:08:28;;;;;;;14.37;10.63;;;;;;;17.50;100.00;100520.23;1698940;84;21078;-67
2022/08/08 03:11:15;;;;;;;14.15;9.60;;;;;;;17.52;100.00;100517.00;1698633;84;21096;-67
2022/08/08 03:13:51;;;;;;;23.10;9.65;;;;;;;17.52;100.00;100522.33;1699009;84;21061;-67
2022/08/08 03:16:56;;;;;;;15.55;9.63;;;;;;;17.52;100.00;100531.16;1698746;84;21084;-67
2022/08/08 03:20:04;;;;;;;16.07;10.18;;;;;;;17.55;100.00;100536.78;1594247;88;21164;-67
2022/08/08 03:22:29;;;;;;;13.90;9.38;;;;;;;17.54;100.00;100536.41;1692489;84;21228;-67
2022/08/08 03:24:55;;;;;;;15.72;10.10;;;;;;;17.52;100.00;100539.63;1699050;84;21064;-66
2022/08/08 03:27:38;;;;;;;11.50;8.35;;;;;;;17.53;100.00;100544.00;1698813;84;21088;-68
2022/08/08 03:30:11;;;;;;;14.45;9.88;;;;;;;17.49;100.00;100536.69;1698952;84;21037;-67
2022/08/08 03:35:25;;;;;;;15.13;9.60;;;;;;;17.47;100.00;100544.38;1679439;84;21221;-67
2022/08/08 03:37:53;;;;;;;13.75;8.93;;;;;;;17.49;100.00;100543.82;1698616;84;21084;-66
2022/08/08 03:40:21;;;;;;;13.93;9.68;;;;;;;17.48;100.00;100542.09;1698865;84;21129;-66
2022/08/08 03:42:49;;;;;;;14.50;9.75;;;;;;;17.46;100.00;100542.65;1698606;84;21048;-67
2022/08/08 03:45:22;;;;;;;13.72;8.60;;;;;;;17.39;100.00;100546.14;1698425;84;21088;-67
2022/08/08 03:48:04;;;;;;;11.15;7.62;;;;;;;17.38;100.00;100541.30;1698760;84;21134;-69
2022/08/08 03:50:34;;;;;;;12.03;8.90;;;;;;;17.40;100.00;100555.37;1698674;84;21088;-67
2022/08/08 03:53:10;;;;;;;16.87;9.73;;;;;;;17.45;100.00;100551.59;1692323;84;21100;-69
2022/08/08 03:55:39;;;;;;;12.65;8.60;;;;;;;17.47;100.00;100555.03;1680769;85;21048;-68
2022/08/08 03:58:07;;;;;;;14.18;8.78;;;;;;;17.49;100.00;100550.48;1684372;84;21139;-67
2022/08/08 04:00:34;;;;;;;14.30;9.83;;;;;;;17.50;100.00;100552.17;1685696;85;21231;-68
2022/08/08 04:03:06;;;;;;;13.60;9.45;;;;;;;17.54;100.00;100556.38;1685799;84;21031;-67
2022/08/08 04:05:34;;;;;;;16.37;10.15;;;;;;;17.57;100.00;100561.52;1685787;85;21059;-68
2022/08/08 04:08:05;;;;;;;14.58;9.60;;;;;;;17.57;100.00;100558.85;1686164;84;21107;-67
2022/08/08 04:10:44;;;;;;;15.88;8.65;;;;;;;17.59;100.00;100556.95;1685711;84;21008;-67
2022/08/08 04:13:12;;;;;;;16.10;10.25;;;;;;;17.58;100.00;100558.77;1685892;84;21499;-67
2022/08/08 04:15:39;;;;;;;25.12;11.85;;;;;;;17.61;100.00;100559.06;1685617;85;21551;-68
2022/08/08 04:18:06;;;;;;;16.52;10.60;;;;;;;17.60;100.00;100558.69;1685888;85;21495;-67
2022/08/08 04:20:33;;;;;;;15.08;10.45;;;;;;;17.57;100.00;100556.19;1685672;84;21004;-66
2022/08/08 04:23:00;;;;;;;14.03;9.88;;;;;;;17.56;100.00;100563.33;1685827;85;21067;-68
2022/08/08 04:25:28;;;;;;;14.15;9.83;;;;;;;17.57;100.00;100559.70;1685646;85;21626;-67
2022/08/08 04:27:55;;;;;;;18.73;10.88;;;;;;;17.57;100.00;100559.70;1685747;84;21083;-67
2022/08/08 04:30:22;;;;;;;15.35;10.35;;;;;;;17.59;100.00;100558.29;1685603;84;21055;-67
2022/08/08 04:32:52;;;;;;;10.93;7.80;;;;;;;17.59;100.00;100557.81;1685816;85;21116;-67
2022/08/08 04:35:20;;;;;;;15.45;9.90;;;;;;;17.62;100.00;100560.76;1685212;84;21036;-68
2022/08/08 04:37:47;;;;;;;14.00;9.08;;;;;;;17.70;100.00;100558.99;1685625;85;21152;-68
2022/08/08 04:40:16;;;;;;;15.20;9.25;;;;;;;17.75;100.00;100570.22;1685674;84;21044;-67
2022/08/08 04:42:45;;;;;;;17.07;9.78;;;;;;;17.85;100.00;100565.22;1685601;84;21024;-67
2022/08/08 04:45:12;;;;;;;11.85;8.80;;;;;;;17.94;100.00;100566.00;1685896;85;21540;-67
2022/08/08 04:47:39;;;;;;;14.05;9.10;;;;;;;18.03;100.00;100571.62;1685865;84;21063;-67
2022/08/08 04:50:07;;;;;;;13.85;8.78;;;;;;;18.10;100.00;100574.77;1686082;85;21219;-68
2022/08/08 04:52:36;;;;;;;12.80;9.65;;;;;;;18.17;100.00;100570.77;1685620;85;21064;-67
2022/08/08 04:55:05;;;;;;;13.95;9.30;;;;;;;18.24;100.00;100573.46;1685625;84;20988;-67
2022/08/08 04:57:33;;;;;;;21.00;9.25;;;;;;;18.30;100.00;100576.69;1685685;84;21107;-68
2022/08/08 04:59:59;;;;;;;13.75;9.53;;;;;;;18.38;100.00;100578.39;1668187;85;21142;-67
2022/08/08 05:02:26;;;;;;;17.85;9.25;;;;;;;18.38;100.00;100579.72;1685967;85;21133;-66
2022/08/08 05:04:53;;;;;;;19.30;9.30;;;;;;;18.45;100.00;100581.08;1685669;85;21055;-67
2022/08/08 05:07:19;;;;;;;12.13;7.80;;;;;;;18.51;100.00;100576.67;1686068;85;21056;-68
2022/08/08 05:09:46;;;;;;;14.53;9.15;;;;;;;18.57;100.00;100578.96;1685723;85;21035;-69
2022/08/08 05:12:13;;;;;;;11.03;8.78;;;;;;;18.62;100.00;100578.19;1668188;85;21103;-67
2022/08/08 05:14:40;;;;;;;12.13;8.03;;;;;;;18.66;100.00;100581.53;1685911;85;21779;-69
2022/08/08 05:17:07;;;;;;;10.05;7.33;;;;;;;18.71;100.00;100583.91;1667882;85;21079;-67
2022/08/08 05:19:36;;;;;;;14.55;7.83;;;;;;;18.77;100.00;100582.19;1686092;85;21075;-68
2022/08/08 05:22:05;;;;;;;11.03;7.30;;;;;;;18.84;100.00;100590.17;1685789;84;21035;-68
2022/08/08 05:24:34;;;;;;;14.10;9.33;;;;;;;18.86;100.00;100592.27;1686285;84;21293;-68
2022/08/08 05:27:01;;;;;;;13.55;9.15;;;;;;;18.88;100.00;100595.70;1685843;85;21211;-68
2022/08/08 05:29:28;;;;;;;13.62;9.25;;;;;;;18.80;100.00;100596.69;1668022;85;21054;-67
2022/08/08 05:31:55;;;;;;;15.78;10.58;;;;;;;18.78;100.00;100595.93;1685877;85;21072;-68
2022/08/08 05:34:34;;;;;;;11.85;9.25;;;;;;;18.80;100.00;100590.02;1685920;85;21013;-68
2022/08/08 05:37:02;;;;;;;18.27;11.35;;;;;;;18.76;100.00;100587.13;1685888;84;21059;-68
2022/08/08 05:39:29;;;;;;;17.85;11.78;;;;;;;18.81;100.00;100602.39;1686078;85;22219;-67
2022/08/08 05:41:56;;;;;;;15.55;11.30;;;;;;;18.84;100.00;100596.84;1685939;85;21040;-68
2022/08/08 05:44:28;;;;;;;16.95;11.30;;;;;;;18.85;100.00;100599.91;1685985;85;21012;-68
2022/08/08 05:46:57;;;;;;;14.90;10.13;;;;;;;18.87;100.00;100599.34;1685988;85;21615;-69
2022/08/08 05:49:24;;;;;;;15.58;9.28;;;;;;;18.91;100.00;100608.88;1685852;85;21068;-67
2022/08/08 05:51:51;;;;;;;16.15;11.10;;;;;;;18.93;100.00;100604.75;1686088;85;21184;-68
2022/08/08 05:54:19;;;;;;;16.77;11.00;;;;;;;18.93;100.00;100605.59;1701683;84;21088;-69
2022/08/08 05:56:46;;;;;;;16.48;11.15;;;;;;;18.96;100.00;100612.09;1704269;84;21065;-67
2022/08/08 05:59:21;;;;;;;14.50;9.43;;;;;;;18.96;100.00;100605.42;1699030;82;21600;-67
2022/08/08 06:01:55;;;;;;;21.10;10.45;;;;;;;18.99;100.00;100610.55;1699026;84;21053;-68
2022/08/08 06:04:25;;;;;;;15.98;11.20;;;;;;;19.05;100.00;100610.16;1698667;84;21813;-68
2022/08/08 06:06:58;;;;;;;;;;;;;;;19.10;100.00;100622.36;1701523;84;21029;-68
2022/08/08 06:09:31;;;;;;;16.27;10.35;;;;;;;19.08;100.00;100620.63;1698574;84;20512;-68
2022/08/08 06:11:59;;;;;;;16.00;10.38;;;;;;;19.05;100.00;100618.66;1698994;84;21046;-67
2022/08/08 06:14:28;;;;;;;14.63;10.60;;;;;;;19.00;100.00;100614.95;1698718;84;21024;-68
2022/08/08 06:17:01;;;;;;;13.22;9.23;;;;;;;19.01;100.00;100619.31;1681204;84;21099;-68
2022/08/08 06:19:32;;;;;;;14.78;10.05;;;;;;;19.02;100.00;100623.69;1672357;84;21055;-67
2022/08/08 06:21:58;;;;;;;15.45;10.00;;;;;;;19.05;100.00;100622.17;1680818;84;21001;-67
2022/08/08 06:24:26;;;;;;;12.18;8.83;;;;;;;19.12;100.00;100623.97;1697986;84;21088;-68
2022/08/08 06:27:03;;;;;;;12.40;9.15;;;;;;;19.21;100.00;100621.16;1699190;84;21037;-68
2022/08/08 06:29:41;;;;;;;17.70;10.28;;;;;;;19.33;100.00;100628.39;1698974;84;21255;-69
2022/08/08 06:32:09;;;;;;;12.80;9.45;;;;;;;19.42;100.00;100629.12;1699048;84;21032;-68
2022/08/08 06:34:36;;;;;;;14.70;9.65;;;;;;;19.48;100.00;100628.69;1698646;84;21517;-67
2022/08/08 06:37:04;;;;;;;14.58;10.23;;;;;;;19.58;100.00;100633.42;1698635;84;21294;-68
2022/08/08 06:39:31;;;;;;;15.53;8.70;;;;;;;19.67;100.00;100624.82;1699034;84;21061;-68
2022/08/08 06:42:01;;;;;;;15.13;9.90;;;;;;;19.72;100.00;100627.22;1698881;84;21334;-68
2022/08/08 06:44:29;;;;;;;15.08;8.98;;;;;;;19.74;100.00;100627.94;1697823;84;21073;-69
2022/08/08 06:46:57;;;;;;;14.45;8.83;;;;;;;19.78;100.00;100635.64;1698569;84;21502;-68
2022/08/08 06:49:26;;;;;;;10.85;7.65;;;;;;;19.82;100.00;100638.98;1680925;84;21057;-68
2022/08/08 06:51:52;;;;;;;10.58;7.90;;;;;;;19.84;100.00;100631.72;1680818;84;21060;-68
2022/08/08 06:54:21;;;;;;;10.50;7.80;;;;;;;19.87;100.00;100639.52;1682560;84;21092;-68
2022/08/08 06:56:50;;;;;;;10.65;7.42;;;;;;;19.90;100.00;100640.18;1680673;84;21528;-68
2022/08/08 06:59:17;;;;;;;9.00;6.47;;;;;;;19.91;100.00;100639.20;1680574;84;21087;-68
2022/08/08 07:01:50;;;;;;;11.03;7.10;;;;;;;19.93;100.00;100634.25;1680696;84;21039;-69
2022/08/08 07:04:27;;;;;;;10.82;7.00;;;;;;;19.98;100.00;100640.14;1680822;85;21080;-69
2022/08/08 07:06:58;;;;;;;8.23;6.33;;;;;;;19.98;100.00;100636.13;1670015;85;21051;-68
2022/08/08 07:09:39;;;;;;;11.30;9.23;;;;;;;20.06;100.00;100639.11;1680724;85;21063;-67
2022/08/08 07:12:07;;;;;;;13.03;9.40;;;;;;;20.08;100.00;100643.87;1671793;85;21113;-68
2022/08/08 07:14:44;;;;;;;12.25;9.03;;;;;;;20.02;100.00;100652.34;1680362;85;21028;-67
2022/08/08 07:17:16;;;;;;;13.45;8.95;;;;;;;19.96;100.00;100656.27;1680364;84;21051;-68
2022/08/08 07:19:52;;;;;;;12.05;8.68;;;;;;;19.93;100.00;100651.63;1680757;84;21737;-68
2022/08/08 07:22:23;;;;;;;12.53;8.58;;;;;;;19.96;100.00;100656.27;1680344;85;21632;-68
2022/08/08 07:25:01;;;;;;;11.95;8.30;;;;;;;20.06;100.00;100661.38;1680861;85;21051;-69
2022/08/08 07:27:36;;;;;;;12.65;8.23;;;;;;;20.15;100.00;100653.67;1680531;85;21047;-68
2022/08/08 07:30:06;;;;;;;11.70;8.83;;;;;;;20.25;100.00;100654.77;1679956;84;21080;-67
2022/08/08 07:32:35;;;;;;;10.15;7.15;;;;;;;20.25;100.00;100656.95;1680651;84;21208;-68
2022/08/08 07:35:04;;;;;;;8.23;6.95;;;;;;;20.27;100.00;100653.70;1680297;85;21087;-67
2022/08/08 07:37:34;;;;;;;10.30;7.65;;;;;;;20.37;100.00;100653.91;1680672;84;21087;-67
2022/08/08 07:40:01;;;;;;;11.05;7.87;;;;;;;20.52;100.00;100647.95;1680453;84;21552;-69
2022/08/08 07:42:29;;;;;;;9.60;8.20;;;;;;;20.68;100.00;100649.97;1680709;84;21036;-69
2022/08/08 07:44:56;;;;;;;9.18;7.87;;;;;;;20.81;100.00;100649.09;1670739;85;21141;-68
2022/08/08 07:47:23;;;;;;;8.90;7.62;;;;;;;20.95;100.00;100645.78;1680676;85;21077;-69
2022/08/08 07:49:49;;;;;;;10.05;7.85;;;;;;;21.05;100.00;100647.33;1680623;85;21059;-69
2022/08/08 07:52:17;;;;;;;14.45;8.50;;;;;;;21.21;100.00;100654.22;1679660;85;21059;-69
2022/08/08 07:54:56;;;;;;;12.53;8.30;;;;;;;21.37;100.00;100656.14;1698899;84;21057;-68
2022/08/08 07:57:34;;;;;;;18.23;9.65;;;;;;;21.54;100.00;100654.45;1699131;84;21123;-68
2022/08/08 08:00:09;;;;;;;9.48;6.80;;;;;;;21.76;100.00;100650.14;1698881;84;21588;-69
2022/08/08 08:03:01;;;;;;;11.85;7.47;;;;;;;21.89;100.00;100648.24;1698935;84;21009;-69
2022/08/08 08:05:29;;;;;;;11.68;7.83;;;;;;;22.07;100.00;100652.69;1698785;84;21032;-68
2022/08/08 08:08:06;;;;;;;8.23;6.97;;;;;;;22.29;100.00;100647.91;1699103;84;21083;-68
2022/08/08 08:10:37;;;;;;;9.38;7.87;;;;;;;22.51;100.00;100649.73;1698846;84;21146;-68
2022/08/08 08:13:22;;;;;;;16.48;7.97;;;;;;;22.71;100.00;100642.80;1665891;84;21568;-69
2022/08/08 08:16:05;;;;;;;10.95;7.90;;;;;;;22.86;100.00;100646.56;1698682;84;21498;-68
2022/08/08 08:18:47;;;;;;;9.10;6.65;;;;;;;23.01;100.00;100648.05;1698802;84;21041;-68
2022/08/08 08:21:17;;;;;;;8.28;5.78;;;;;;;23.22;100.00;100648.13;1698783;84;21054;-69
2022/08/08 08:23:44;;;;;;;10.70;6.75;;;;;;;23.33;100.00;100652.60;1699094;84;21542;-70
2022/08/08 08:26:17;;;;;;;7.08;6.37;;;;;;;23.37;100.00;100652.72;1698863;84;21029;-69
2022/08/08 08:28:40;;;;;;;10.30;7.90;;;;;;;23.43;100.00;100653.07;1698770;84;21461;-68
2022/08/08 08:31:08;;;;;;;8.68;6.42;;;;;;;23.46;100.00;100654.15;1698977;84;21037;-69
2022/08/08 08:33:35;;;;;;;13.35;7.17;;;;;;;23.44;100.00;100653.92;1698632;84;21796;-70
2022/08/08 08:36:04;;;;;;;9.50;7.05;;;;;;;23.43;100.00;100660.29;1698598;84;21224;-68
2022/08/08 08:38:31;;;;;;;10.10;7.40;;;;;;;23.37;100.00;100656.25;1698376;84;21093;-68
2022/08/08 08:40:59;;;;;;;12.78;7.37;;;;;;;23.28;100.00;100655.67;1699072;84;21028;-69
2022/08/08 08:43:26;;;;;;;12.45;7.47;;;;;;;23.21;100.00;100654.00;1704296;84;21092;-67
2022/08/08 08:45:54;;;;;;;12.25;7.75;;;;;;;23.18;100.00;100655.58;1699072;84;21595;-68
2022/08/08 08:48:22;;;;;;;9.23;7.37;;;;;;;23.17;100.00;100657.06;1698676;84;21170;-68
2022/08/08 08:50:52;;;;;;;8.35;7.45;;;;;;;23.07;100.00;100655.59;1680241;84;21010;-69
2022/08/08 08:53:20;;;;;;;10.68;7.17;;;;;;;23.01;100.00;100665.52;1690145;84;21047;-68
2022/08/08 08:55:46;;;;;;;8.95;7.28;;;;;;;22.99;100.00;100658.06;1680806;85;21551;-68
2022/08/08 08:58:38;;;;;;;8.93;7.72;;;;;;;22.95;100.00;100656.56;1681199;84;21123;-68
2022/08/08 09:02:34;;;;;;;10.72;7.42;;;;;;;22.72;100.00;100655.23;1814400;79;23107;-68
2022/08/08 09:05:03;;;;;;;10.60;7.45;;;;;;;22.72;100.00;100661.94;1787483;80;20953;-67
2022/08/08 09:07:33;;;;;;;12.10;7.47;;;;;;;22.81;100.00;100657.18;1787939;80;21193;-68
2022/08/08 09:10:00;;;;;;;9.18;7.53;;;;;;;22.83;100.00;100663.28;1787593;80;20992;-68
2022/08/08 09:12:30;;;;;;;8.23;6.62;;;;;;;22.75;100.00;100660.37;1782359;80;21037;-68
2022/08/08 09:14:57;;;;;;;7.72;6.92;;;;;;;22.65;100.00;100666.59;1780681;79;21053;-67
2022/08/08 09:17:26;;;;;;;8.98;7.50;;;;;;;22.68;100.00;100663.16;1756706;81;20985;-67
2022/08/08 09:19:58;;;;;;;9.50;7.45;;;;;;;22.76;100.00;100663.91;1756466;81;21194;-68
2022/08/08 09:22:25;;;;;;;9.10;7.37;;;;;;;22.80;100.00;100659.52;1756650;81;21991;-68
2022/08/08 09:24:53;;;;;;;8.58;6.95;;;;;;;22.81;100.00;100659.86;1756496;81;21049;-69
2022/08/08 09:27:20;;;;;;;8.48;7.12;;;;;;;22.79;100.00;100655.59;1756506;81;22117;-68
2022/08/08 09:30:01;;;;;;;9.78;6.55;;;;;;;22.81;100.00;100661.20;1756434;81;21024;-68
2022/08/08 09:32:41;;;;;;;9.10;7.30;;;;;;;22.89;100.00;100651.22;1756339;81;21060;-69
2022/08/08 09:35:14;;;;;;;8.20;6.90;;;;;;;22.99;100.00;100652.20;1756240;81;21040;-69
2022/08/08 09:37:59;;;;;;;10.50;6.97;;;;;;;23.02;100.00;100651.94;1756134;81;21107;-69
2022/08/08 09:40:29;;;;;;;8.43;5.95;;;;;;;22.98;100.00;100653.63;1756202;81;21036;-69
2022/08/08 09:43:19;;;;;;;7.10;5.90;;;;;;;22.94;100.00;100660.24;1756631;81;21052;-69
2022/08/08 09:46:01;;;;;;;8.45;6.08;;;;;;;22.96;100.00;100662.29;1756253;81;21283;-68
2022/08/08 09:48:31;;;;;;;6.53;5.72;;;;;;;22.98;100.00;100660.33;1756181;81;20997;-67
2022/08/08 09:51:02;;;;;;;8.50;6.20;;;;;;;23.02;100.00;100659.15;1756372;81;21563;-68
2022/08/08 09:53:43;;;;;;;9.13;5.92;;;;;;;23.05;100.00;100665.61;1740663;81;21102;-69
2022/08/08 09:56:10;;;;;;;8.25;5.67;;;;;;;23.12;100.00;100665.50;1709890;83;21047;-68
2022/08/08 09:58:40;;;;;;;9.93;6.65;;;;;;;23.28;100.00;100669.60;1694175;84;21160;-71
2022/08/08 10:01:08;;;;;;;7.35;5.70;;;;;;;23.36;100.00;100667.16;1689572;84;21612;-67
2022/08/08 10:03:36;;;;;;;8.13;6.42;;;;;;;23.44;100.00;100670.05;1713414;83;21107;-69
2022/08/08 10:06:18;;;;;;;6.95;5.75;;;;;;;23.51;100.00;100671.23;1713470;82;21645;-69
2022/08/08 10:08:49;;;;;;;6.75;5.45;;;;;;;23.49;100.00;100662.48;1713602;83;21076;-69
2022/08/08 10:11:22;;;;;;;;;;;;;;;23.57;100.00;100674.77;1681609;85;21101;-68
2022/08/08 10:13:54;;;;;;;6.45;5.65;;;;;;;23.64;100.00;100668.41;1665502;85;20216;-69
2022/08/08 10:16:21;;;;;;;7.67;6.00;;;;;;;23.71;100.00;100668.74;1678208;85;21048;-69
2022/08/08 10:18:48;;;;;;;7.60;5.72;;;;;;;23.83;100.00;100671.77;1678110;85;21033;-69
2022/08/08 10:21:18;;;;;;;8.23;5.80;;;;;;;23.97;100.00;100666.56;1678155;85;21599;-69
2022/08/08 10:23:47;;;;;;;;;;;;;;;24.17;98.73;100663.03;1680816;85;21575;-68
2022/08/08 10:26:21;;;;;;;8.20;5.90;;;;;;;24.35;97.92;100662.44;1678223;85;20155;-69
2022/08/08 10:29:02;;;;;;;7.28;6.58;;;;;;;24.41;97.39;100652.00;1678192;85;21041;-69
2022/08/08 10:34:15;;;;;;;7.55;5.25;;;;;;;24.68;96.20;100651.43;1678035;85;21041;-68
2022/08/08 10:36:43;;;;;;;8.83;5.60;;;;;;;24.90;94.61;100651.73;1677971;85;21135;-68
2022/08/08 10:39:13;;;;;;;6.30;5.53;;;;;;;25.02;93.08;100652.98;1678157;85;21702;-69
2022/08/08 10:41:40;;;;;;;13.00;6.77;;;;;;;25.04;92.89;100651.84;1651525;85;21115;-70
2022/08/08 10:44:06;;;;;;;8.10;5.72;;;;;;;25.03;92.39;100649.28;1678334;85;21579;-69
2022/08/08 10:46:34;;;;;;;7.10;5.85;;;;;;;25.09;92.28;100649.59;1678064;85;21048;-70
2022/08/08 10:49:00;;;;;;;7.87;5.60;;;;;;;25.25;92.05;100651.78;1678387;85;21204;-68
2022/08/08 10:51:36;;;;;;;8.58;6.17;;;;;;;25.38;91.11;100649.34;1678158;85;21071;-69
2022/08/08 10:54:07;;;;;;;10.63;6.55;;;;;;;25.44;90.94;100644.21;1704912;83;21019;-68
2022/08/08 10:56:33;;;;;;;6.75;5.97;;;;;;;25.57;90.06;100648.50;1742589;82;21126;-69
2022/08/08 10:59:00;;;;;;;12.30;7.17;;;;;;;25.61;89.40;100641.33;1742678;82;21035;-67
2022/08/08 11:01:28;;;;;;;10.00;6.70;;;;;;;25.61;88.30;100646.72;1707380;83;21260;-69
2022/08/08 11:03:59;;;;;;;8.65;6.47;;;;;;;25.54;88.38;100642.89;1706826;84;21602;-69
2022/08/08 11:06:30;;;;;;;8.60;6.70;;;;;;;25.47;88.33;100644.45;1707234;84;21617;-70
2022/08/08 11:09:07;;;;;;;8.20;5.92;;;;;;;25.37;88.50;100639.03;1742973;82;21078;-69
2022/08/08 11:11:44;;;;;;;7.55;6.60;;;;;;;25.20;89.55;100641.08;1706674;84;21117;-68
2022/08/08 11:14:13;;;;;;;6.60;5.97;;;;;;;25.22;89.81;100635.90;1706814;84;21153;-69
2022/08/08 11:16:42;;;;;;;9.33;6.28;;;;;;;25.30;89.00;100640.08;1742479;82;21022;-69
2022/08/08 11:19:08;;;;;;;12.00;6.95;;;;;;;25.42;88.56;100635.44;1742907;82;21013;-68
2022/08/08 11:21:44;;;;;;;13.10;7.40;;;;;;;25.48;87.52;100634.01;1742670;82;21558;-69
2022/08/08 11:24:08;;;;;;;14.80;6.75;;;;;;;25.48;87.41;100632.66;1742652;82;21007;-69
2022/08/08 11:26:39;;;;;;;11.57;6.95;;;;;;;25.54;88.24;100634.30;1742682;82;21684;-68
2022/08/08 11:29:06;;;;;;;9.50;6.60;;;;;;;25.51;86.72;100637.77;1742434;82;21017;-70
2022/08/08 11:31:47;;;;;;;11.22;7.12;;;;;;;25.51;86.72;100637.77;1742455;82;21074;-69
2022/08/08 11:34:16;;;;;;;7.40;6.58;;;;;;;25.42;87.12;100637.26;1742573;82;21140;-68
2022/08/08 11:36:42;;;;;;;8.48;6.78;;;;;;;25.41;88.31;100642.31;1742731;82;21577;-69
2022/08/08 11:39:10;;;;;;;10.58;6.72;;;;;;;25.50;87.87;100638.77;1742783;82;21619;-70
2022/08/08 11:41:37;;;;;;;10.43;7.05;;;;;;;25.54;86.76;100637.50;1745989;82;22158;-69
2022/08/08 11:44:04;;;;;;;9.18;6.33;;;;;;;25.52;87.22;100636.78;1746253;82;21540;-68
2022/08/08 11:46:35;;;;;;;8.55;6.95;;;;;;;25.51;87.30;100628.33;1742604;82;21510;-69
2022/08/08 11:49:05;;;;;;;7.85;6.95;;;;;;;25.54;87.82;100630.76;1742490;82;21038;-69
2022/08/08 11:51:33;;;;;;;10.80;6.42;;;;;;;25.60;86.64;100631.52;1742799;82;21225;-69
2022/08/08 11:54:00;;;;;;;10.88;6.83;;;;;;;25.67;86.54;100629.95;1720144;82;21071;-68
2022/08/08 11:56:33;;;;;;;9.88;6.47;;;;;;;25.72;85.98;100634.92;1712764;83;21119;-71
2022/08/08 11:59:08;;;;;;;11.85;7.30;;;;;;;25.75;85.54;100635.50;1678617;85;21093;-68
2022/08/08 12:01:35;;;;;;;10.63;6.50;;;;;;;25.74;85.30;100634.28;1712829;82;21031;-69